Time;durP1;ratioP1;P1;durP2;ratioP2;P2;SDS_P1;SDS_P2;PMS_P1;PMS_P2;Temp;Humidity;BMP_temperature;BMP_pressure;BME280_temperature;BME280_humidity;BME280_pressure;Samples;Min_cycle;Max_cycle;Signal;HPM_P1;HPM_P2
2021/11/22 00:00:29;;;;;;;5.57;1.57;;;;;;;4.23;88.74;102154.81;703057;28;970;-69
2021/11/22 00:01:03;;;;;;;7.05;1.67;;;;;;;4.20;88.88;102152.22;703091;28;836;-69
2021/11/22 00:01:27;;;;;;;7.53;1.42;;;;;;;4.18;88.97;102156.56;702980;28;974;-69
2021/11/22 00:01:48;;;;;;;7.85;1.80;;;;;;;4.15;88.98;102156.53;702635;28;1101;-68
2021/11/22 00:02:12;;;;;;;7.03;1.85;;;;;;;4.13;88.91;102151.31;702181;28;975;-69
2021/11/22 00:02:32;;;;;;;6.60;1.75;;;;;;;4.15;89.00;102157.41;702419;28;891;-69
2021/11/22 00:02:54;;;;;;;7.77;1.70;;;;;;;4.15;89.07;102157.41;702101;28;894;-69
2021/11/22 00:03:15;;;;;;;8.13;1.90;;;;;;;4.17;89.08;102150.47;702207;28;1018;-69
2021/11/22 00:03:36;;;;;;;6.73;1.90;;;;;;;4.17;89.03;102155.69;702260;28;905;-72
2021/11/22 00:03:57;;;;;;;6.28;1.70;;;;;;;4.17;89.07;102147.84;702088;28;1057;-69
2021/11/22 00:04:22;;;;;;;6.05;1.63;;;;;;;4.18;88.99;102156.56;702267;28;1089;-69
2021/11/22 00:04:42;;;;;;;7.28;1.63;;;;;;;4.19;88.91;102153.94;702549;28;871;-68
2021/11/22 00:05:05;;;;;;;7.47;1.47;;;;;;;4.21;89.00;102152.22;702340;28;871;-68
2021/11/22 00:05:28;;;;;;;7.72;2.05;;;;;;;4.21;88.92;102147.00;702795;28;959;-68
2021/11/22 00:05:48;;;;;;;6.70;1.83;;;;;;;4.21;88.93;102152.22;703281;28;973;-68
2021/11/22 00:06:09;;;;;;;6.27;1.40;;;;;;;4.19;88.66;102156.53;703309;28;1049;-69
2021/11/22 00:06:32;;;;;;;7.00;1.40;;;;;;;4.20;88.67;102150.47;703241;28;861;-69
2021/11/22 00:06:52;;;;;;;7.07;1.70;;;;;;;4.20;88.82;102147.88;703092;28;827;-69
2021/11/22 00:07:16;;;;;;;7.67;1.70;;;;;;;4.21;88.66;102148.75;702986;28;959;-68
2021/11/22 00:07:37;;;;;;;8.63;1.60;;;;;;;4.20;88.66;102153.09;703028;28;828;-68
2021/11/22 00:07:57;;;;;;;6.87;1.43;;;;;;;4.19;88.31;102148.72;703031;28;817;-69
2021/11/22 00:08:18;;;;;;;8.15;1.65;;;;;;;4.21;88.49;102149.59;703338;28;1311;-70
2021/11/22 00:08:38;;;;;;;6.60;1.75;;;;;;;4.23;88.56;102147.00;702944;28;909;-68
2021/11/22 00:09:01;;;;;;;7.00;1.70;;;;;;;4.21;88.38;102149.59;703468;28;836;-69
2021/11/22 00:09:22;;;;;;;7.15;1.80;;;;;;;4.20;88.56;102154.84;702983;28;935;-68
2021/11/22 00:09:44;;;;;;;6.70;1.63;;;;;;;4.19;88.53;102151.31;702562;28;914;-68
2021/11/22 00:10:05;;;;;;;7.28;1.63;;;;;;;4.17;88.54;102145.25;702525;28;876;-70
2021/11/22 00:10:26;;;;;;;5.82;1.40;;;;;;;4.20;88.44;102150.47;702547;28;1025;-68
2021/11/22 00:10:46;;;;;;;5.70;1.35;;;;;;;4.19;88.47;102153.94;702428;28;898;-69
2021/11/22 00:11:06;;;;;;;6.53;1.50;;;;;;;4.19;88.60;102153.94;702291;28;846;-67
2021/11/22 00:11:27;;;;;;;6.73;1.50;;;;;;;4.20;88.52;102155.69;702062;28;844;-69
2021/11/22 00:11:49;;;;;;;6.20;1.40;;;;;;;4.19;88.48;102153.94;702107;28;816;-68
2021/11/22 00:12:10;;;;;;;8.13;1.80;;;;;;;4.18;88.22;102161.78;702166;28;916;-68
2021/11/22 00:12:34;;;;;;;7.97;1.58;;;;;;;4.19;88.24;102153.94;702259;28;871;-69
2021/11/22 00:12:54;;;;;;;5.38;1.40;;;;;;;4.19;88.24;102161.75;702330;28;927;-69
2021/11/22 00:13:15;;;;;;;5.05;1.50;;;;;;;4.21;88.04;102152.22;702235;28;928;-69
2021/11/22 00:13:35;;;;;;;5.93;1.80;;;;;;;4.20;88.04;102155.69;702350;28;871;-68
2021/11/22 00:13:56;;;;;;;7.13;1.60;;;;;;;4.21;88.13;102161.78;702303;28;820;-69
2021/11/22 00:14:17;;;;;;;8.68;1.55;;;;;;;4.21;88.33;102160.06;702142;28;1913;-69
2021/11/22 00:14:37;;;;;;;6.15;1.40;;;;;;;4.22;88.48;102161.78;702420;28;978;-69
2021/11/22 00:14:58;;;;;;;6.03;1.50;;;;;;;4.23;88.51;102163.56;702396;28;1020;-70
2021/11/22 00:15:19;;;;;;;7.83;1.40;;;;;;;4.24;88.07;102160.06;702291;28;867;-69
2021/11/22 00:15:39;;;;;;;6.80;1.50;;;;;;;4.23;88.22;102160.94;702365;28;896;-69
2021/11/22 00:15:59;;;;;;;6.73;1.70;;;;;;;4.25;88.45;102158.31;702264;28;857;-68
2021/11/22 00:16:20;;;;;;;6.93;1.53;;;;;;;4.25;88.43;102160.94;702276;28;902;-69
2021/11/22 00:16:40;;;;;;;7.50;1.40;;;;;;;4.25;88.16;102160.94;702380;28;915;-69
2021/11/22 00:17:01;;;;;;;6.45;1.45;;;;;;;4.22;87.95;102164.41;702260;28;833;-69
2021/11/22 00:17:22;;;;;;;6.38;1.30;;;;;;;4.24;87.80;102161.81;702350;28;820;-69
2021/11/22 00:17:43;;;;;;;7.18;1.50;;;;;;;4.24;87.74;102161.81;701998;28;1138;-69
2021/11/22 00:18:04;;;;;;;7.05;1.50;;;;;;;4.24;87.84;102157.47;701969;28;1361;-68
2021/11/22 00:18:24;;;;;;;5.37;1.50;;;;;;;4.25;87.85;102169.63;702259;28;864;-71
2021/11/22 00:18:45;;;;;;;6.73;1.43;;;;;;;4.25;88.10;102159.19;702341;28;985;-68
2021/11/22 00:19:05;;;;;;;6.70;1.53;;;;;;;4.25;87.92;102168.75;702286;28;855;-69
2021/11/22 00:19:25;;;;;;;5.05;1.40;;;;;;;4.23;87.81;102160.94;702256;28;1321;-69
2021/11/22 00:19:45;;;;;;;6.73;1.30;;;;;;;4.24;87.98;102160.06;702343;28;807;-69
2021/11/22 00:20:23;;;;;;;7.37;1.43;;;;;;;4.23;88.18;102160.03;702230;28;813;-69
2021/11/22 00:20:44;;;;;;;6.40;1.52;;;;;;;4.25;88.07;102166.16;702195;28;1002;-69
2021/11/22 00:21:07;;;;;;;7.20;1.43;;;;;;;4.26;88.25;102167.88;702335;28;930;-69
2021/11/22 00:21:28;;;;;;;6.50;1.40;;;;;;;4.23;87.81;102160.03;702245;28;1364;-69
2021/11/22 00:21:48;;;;;;;5.53;1.40;;;;;;;4.25;87.49;102166.16;702159;28;972;-69
2021/11/22 00:22:11;;;;;;;5.63;1.38;;;;;;;4.25;87.68;102169.63;702159;28;1026;-68
2021/11/22 00:22:32;;;;;;;6.47;1.55;;;;;;;4.22;87.93;102167.00;702260;28;871;-69
2021/11/22 00:22:52;;;;;;;5.83;1.57;;;;;;;4.25;87.75;102174.84;702268;28;978;-69
2021/11/22 00:23:13;;;;;;;5.78;1.30;;;;;;;4.25;87.93;102166.16;702301;28;959;-69
2021/11/22 00:23:33;;;;;;;7.95;1.33;;;;;;;4.22;87.05;102168.75;702146;28;922;-69
2021/11/22 00:23:54;;;;;;;7.03;1.30;;;;;;;4.22;87.07;102167.00;702281;28;823;-69
2021/11/22 00:24:14;;;;;;;6.63;1.50;;;;;;;4.23;86.93;102167.88;702202;28;793;-68
2021/11/22 00:24:34;;;;;;;6.78;1.33;;;;;;;4.24;87.44;102170.50;702199;28;936;-68
2021/11/22 00:24:55;;;;;;;6.87;1.27;;;;;;;4.24;87.05;102170.50;702362;28;823;-68
2021/11/22 00:25:16;;;;;;;6.18;1.20;;;;;;;4.22;86.78;102174.84;702368;28;1001;-69
2021/11/22 00:25:36;;;;;;;6.50;1.23;;;;;;;4.22;86.62;102174.84;702206;28;968;-68
2021/11/22 00:25:56;;;;;;;6.97;1.43;;;;;;;4.22;86.70;102168.75;702264;28;1037;-68
2021/11/22 00:26:17;;;;;;;6.50;1.60;;;;;;;4.22;86.68;102168.75;702213;28;882;-67
2021/11/22 00:26:37;;;;;;;5.83;1.50;;;;;;;4.21;86.57;102173.09;702131;28;1038;-68
2021/11/22 00:26:58;;;;;;;4.03;1.10;;;;;;;4.25;86.66;102172.25;702189;28;1312;-68
2021/11/22 00:27:19;;;;;;;5.70;1.13;;;;;;;4.22;86.73;102169.63;702255;28;1002;-68
2021/11/22 00:27:40;;;;;;;5.22;1.10;;;;;;;4.24;86.79;102170.50;702178;28;1050;-68
2021/11/22 00:28:00;;;;;;;5.65;1.30;;;;;;;4.26;86.77;102176.59;701720;28;1396;-68
2021/11/22 00:28:20;;;;;;;5.83;1.43;;;;;;;4.24;86.71;102173.13;702098;28;938;-68
2021/11/22 00:28:41;;;;;;;7.70;1.40;;;;;;;4.27;86.94;102175.75;702267;28;895;-68
2021/11/22 00:29:02;;;;;;;7.18;1.40;;;;;;;4.28;86.53;102177.50;702293;28;1001;-69
2021/11/22 00:29:22;;;;;;;6.20;1.37;;;;;;;4.27;86.81;102175.75;702176;28;886;-68
2021/11/22 00:29:42;;;;;;;5.40;1.23;;;;;;;4.28;86.47;102180.09;702240;28;1045;-68
2021/11/22 00:30:05;;;;;;;5.13;1.27;;;;;;;4.31;86.42;102178.38;702193;28;803;-69
2021/11/22 00:30:25;;;;;;;6.45;1.45;;;;;;;4.32;86.48;102174.91;702158;28;878;-68
2021/11/22 00:30:48;;;;;;;5.30;1.20;;;;;;;4.32;86.57;102174.91;702299;28;1004;-68
2021/11/22 00:31:09;;;;;;;5.25;1.00;;;;;;;4.31;86.49;102181.84;702121;28;1021;-68
2021/11/22 00:31:35;;;;;;;6.43;1.20;;;;;;;4.34;86.24;102181.00;701989;28;890;-69
2021/11/22 00:31:55;;;;;;;6.03;1.38;;;;;;;4.32;86.16;102178.38;701847;28;936;-68
2021/11/22 00:32:16;;;;;;;5.83;1.30;;;;;;;4.31;86.00;102179.25;701927;28;902;-68
2021/11/22 00:32:36;;;;;;;7.53;1.20;;;;;;;4.34;86.03;102178.41;702031;28;1013;-69
2021/11/22 00:32:59;;;;;;;7.45;1.25;;;;;;;4.32;86.25;102180.97;701886;28;934;-68
2021/11/22 00:33:20;;;;;;;6.40;1.50;;;;;;;4.34;86.15;102178.41;702190;28;874;-68
2021/11/22 00:34:02;;;;;;;7.10;1.30;;;;;;;4.32;85.91;102178.38;702252;28;843;-68
2021/11/22 00:34:21;;;;;;;6.15;1.25;;;;;;;4.33;85.94;102176.63;701655;28;1965;-68
2021/11/22 00:34:42;;;;;;;5.70;1.20;;;;;;;4.33;85.72;102181.84;702244;28;875;-67
2021/11/22 00:35:05;;;;;;;4.72;1.00;;;;;;;4.32;85.84;102180.97;702091;28;958;-68
2021/11/22 00:35:32;;;;;;;5.60;1.10;;;;;;;4.32;85.76;102180.13;702234;28;1009;-68
2021/11/22 00:35:53;;;;;;;7.80;1.30;;;;;;;4.34;85.57;102181.00;702143;28;920;-68
2021/11/22 00:36:13;;;;;;;6.95;1.33;;;;;;;4.33;85.74;102179.25;702108;28;879;-68
2021/11/22 00:36:34;;;;;;;4.35;1.10;;;;;;;4.35;85.71;102180.13;702189;28;852;-68
2021/11/22 00:36:54;;;;;;;5.67;1.20;;;;;;;4.34;85.72;102183.63;702146;28;907;-68
2021/11/22 00:37:20;;;;;;;5.53;1.07;;;;;;;4.34;85.67;102183.63;702208;28;847;-68
2021/11/22 00:37:43;;;;;;;6.88;1.30;;;;;;;4.37;85.87;102183.59;701759;28;919;-69
2021/11/22 00:38:07;;;;;;;6.18;1.08;;;;;;;4.36;85.78;102187.97;701738;28;1231;-68
2021/11/22 00:38:27;;;;;;;5.38;1.02;;;;;;;4.34;85.69;102188.84;702230;28;866;-68
2021/11/22 00:38:47;;;;;;;5.13;1.20;;;;;;;4.35;85.81;102185.34;702095;28;936;-68
2021/11/22 00:39:08;;;;;;;4.85;1.10;;;;;;;4.34;86.10;102183.63;702240;28;1009;-68
2021/11/22 00:39:28;;;;;;;6.37;1.30;;;;;;;4.34;85.95;102183.63;702134;28;1036;-68
2021/11/22 00:40:00;;;;;;;7.32;1.27;;;;;;;4.33;85.79;102185.34;702297;28;886;-69
2021/11/22 00:40:20;;;;;;;6.30;1.20;;;;;;;4.32;85.64;102185.34;702073;28;913;-68
2021/11/22 00:40:41;;;;;;;5.87;1.17;;;;;;;4.30;85.93;102182.69;702189;28;1084;-68
2021/11/22 00:41:01;;;;;;;5.88;1.17;;;;;;;4.31;85.49;102186.22;702182;28;846;-68
2021/11/22 00:41:22;;;;;;;6.10;1.23;;;;;;;4.28;85.34;102190.53;702173;28;875;-68
2021/11/22 00:41:42;;;;;;;5.20;1.30;;;;;;;4.28;85.43;102190.53;702281;28;974;-68
2021/11/22 00:42:09;;;;;;;5.97;1.40;;;;;;;4.26;85.19;102189.63;702280;28;918;-69
2021/11/22 00:42:29;;;;;;;6.18;1.35;;;;;;;4.26;85.00;102189.63;702277;28;939;-68
2021/11/22 00:42:52;;;;;;;6.80;1.30;;;;;;;4.26;84.83;102191.38;702256;28;879;-68
2021/11/22 00:43:13;;;;;;;7.15;1.17;;;;;;;4.25;85.01;102190.50;701923;28;831;-68
2021/11/22 00:43:33;;;;;;;7.10;1.30;;;;;;;4.26;84.74;102189.63;702232;28;903;-68
2021/11/22 00:43:54;;;;;;;5.35;1.17;;;;;;;4.22;84.76;102187.88;702291;28;795;-68
2021/11/22 00:44:15;;;;;;;5.15;1.20;;;;;;;4.18;84.58;102188.72;702074;28;977;-68
2021/11/22 00:44:36;;;;;;;5.73;1.27;;;;;;;4.20;84.84;102189.63;702118;28;1065;-68
2021/11/22 00:45:00;;;;;;;6.30;1.20;;;;;;;4.21;84.93;102198.31;702278;28;1024;-68
2021/11/22 00:45:20;;;;;;;7.63;1.30;;;;;;;4.20;84.93;102201.81;702070;28;835;-68
2021/11/22 00:45:40;;;;;;;5.78;1.27;;;;;;;4.17;84.91;102197.44;701932;28;894;-68
2021/11/22 00:46:01;;;;;;;6.17;1.20;;;;;;;4.16;84.68;102195.66;701856;28;1004;-68
2021/11/22 00:46:21;;;;;;;8.63;1.25;;;;;;;4.12;84.46;102195.66;701901;28;829;-68
2021/11/22 00:46:41;;;;;;;8.27;1.40;;;;;;;4.11;84.67;102194.78;702001;28;1031;-67
2021/11/22 00:47:02;;;;;;;6.33;1.00;;;;;;;4.10;84.61;102198.25;701885;28;1026;-68
2021/11/22 00:47:23;;;;;;;6.38;1.08;;;;;;;4.08;84.46;102197.38;701905;28;903;-68
2021/11/22 00:47:44;;;;;;;6.20;1.27;;;;;;;4.11;84.87;102202.59;701933;28;982;-68
2021/11/22 00:48:04;;;;;;;6.38;1.10;;;;;;;4.12;84.54;102199.13;701965;28;1212;-68
2021/11/22 00:48:25;;;;;;;7.45;1.15;;;;;;;4.09;84.70;102201.72;702193;28;804;-68
2021/11/22 00:48:45;;;;;;;5.60;1.10;;;;;;;4.07;84.35;102208.69;702210;28;851;-68
2021/11/22 00:49:06;;;;;;;6.33;1.23;;;;;;;4.08;84.80;102207.81;702202;28;879;-68
2021/11/22 00:49:26;;;;;;;5.07;1.00;;;;;;;4.09;84.78;102199.09;702113;28;817;-68
2021/11/22 00:49:47;;;;;;;4.03;1.00;;;;;;;4.09;84.52;102200.84;702049;28;990;-69
2021/11/22 00:50:09;;;;;;;5.78;1.02;;;;;;;4.09;85.08;102206.06;702153;28;804;-68
2021/11/22 00:50:30;;;;;;;5.88;1.10;;;;;;;4.09;85.01;102206.94;702117;28;832;-68
2021/11/22 00:50:53;;;;;;;5.22;1.20;;;;;;;4.09;84.79;102206.94;702134;28;863;-68
2021/11/22 00:51:13;;;;;;;4.90;1.20;;;;;;;4.08;84.71;102210.41;702232;28;831;-68
2021/11/22 00:51:33;;;;;;;5.53;1.10;;;;;;;4.09;84.97;102214.75;702044;28;963;-68
2021/11/22 00:51:53;;;;;;;5.87;1.00;;;;;;;4.05;84.71;102213.00;702182;28;939;-68
2021/11/22 00:52:14;;;;;;;6.53;1.17;;;;;;;4.03;84.45;102218.22;702165;28;820;-68
2021/11/22 00:52:34;;;;;;;6.67;1.20;;;;;;;4.01;84.32;102222.53;702084;28;1322;-68
2021/11/22 00:52:55;;;;;;;7.50;1.20;;;;;;;4.02;84.83;102213.84;702037;28;911;-69
2021/11/22 00:53:15;;;;;;;7.90;1.30;;;;;;;4.02;84.77;102213.84;702255;28;829;-68
2021/11/22 00:53:35;;;;;;;7.67;1.20;;;;;;;4.01;84.97;102221.69;702044;28;894;-69
2021/11/22 00:53:57;;;;;;;6.63;1.20;;;;;;;3.99;84.89;102223.38;702239;28;873;-68
2021/11/22 00:54:20;;;;;;;6.05;1.02;;;;;;;4.00;84.89;102219.94;702092;28;1918;-69
2021/11/22 00:54:40;;;;;;;4.93;1.02;;;;;;;4.00;85.00;102218.19;702021;28;927;-68
2021/11/22 00:55:01;;;;;;;5.23;1.20;;;;;;;3.99;84.84;102219.06;702215;28;978;-68
2021/11/22 00:55:25;;;;;;;6.13;1.40;;;;;;;4.00;84.90;102225.16;702068;28;1097;-67
2021/11/22 00:55:45;;;;;;;5.05;1.30;;;;;;;4.01;84.92;102213.84;702094;28;836;-69
2021/11/22 00:56:05;;;;;;;5.43;1.00;;;;;;;4.01;84.91;102222.53;702098;28;1060;-68
2021/11/22 00:56:29;;;;;;;5.57;0.90;;;;;;;4.01;85.13;102219.06;702049;28;994;-68
2021/11/22 00:56:50;;;;;;;4.85;1.10;;;;;;;4.02;84.88;102223.41;702209;28;901;-69
2021/11/22 00:57:13;;;;;;;5.53;1.20;;;;;;;4.03;84.83;102219.97;702107;28;1065;-69
2021/11/22 00:57:34;;;;;;;4.50;0.95;;;;;;;4.04;85.09;102226.91;702004;28;778;-68
2021/11/22 00:57:54;;;;;;;6.68;1.17;;;;;;;4.05;85.30;102208.66;701720;28;950;-69
2021/11/22 00:58:15;;;;;;;6.17;1.20;;;;;;;4.04;85.36;102211.25;702041;28;1284;-69
2021/11/22 00:58:35;;;;;;;5.70;1.07;;;;;;;4.05;85.26;102213.00;702171;28;931;-68
2021/11/22 00:58:55;;;;;;;5.90;1.03;;;;;;;4.06;85.42;102220.00;702223;28;871;-68
2021/11/22 00:59:15;;;;;;;5.10;1.35;;;;;;;4.05;85.21;102224.31;702172;28;791;-68
2021/11/22 00:59:36;;;;;;;4.67;1.20;;;;;;;4.05;85.38;102218.22;702192;28;863;-68
2021/11/22 00:59:57;;;;;;;5.30;1.20;;;;;;;4.04;85.36;102222.56;702243;28;851;-68
2021/11/22 01:00:19;;;;;;;5.60;1.30;;;;;;;4.05;85.49;102218.22;702085;28;900;-68
2021/11/22 01:00:40;;;;;;;5.43;0.93;;;;;;;4.04;85.35;102219.97;702154;28;896;-70
2021/11/22 01:01:00;;;;;;;5.88;1.00;;;;;;;4.07;85.31;102220.84;702138;28;871;-68
2021/11/22 01:01:21;;;;;;;4.40;0.97;;;;;;;4.06;85.19;102222.59;702171;28;997;-68
2021/11/22 01:01:42;;;;;;;4.72;1.13;;;;;;;4.04;85.38;102226.91;702141;28;962;-68
2021/11/22 01:02:08;;;;;;;5.72;1.15;;;;;;;4.05;85.42;102223.44;701693;28;1047;-68
2021/11/22 01:02:29;;;;;;;4.28;0.93;;;;;;;4.05;85.43;102229.53;701861;28;927;-68
2021/11/22 01:02:49;;;;;;;5.32;1.10;;;;;;;4.04;85.76;102226.91;701941;28;875;-68
2021/11/22 01:03:09;;;;;;;6.50;1.20;;;;;;;4.05;85.54;102220.81;701843;28;994;-68
2021/11/22 01:03:32;;;;;;;7.10;1.08;;;;;;;4.02;85.12;102226.03;701990;28;947;-68
2021/11/22 01:03:53;;;;;;;5.20;0.90;;;;;;;3.99;84.80;102228.59;702000;28;943;-68
2021/11/22 01:04:20;;;;;;;5.80;1.00;;;;;;;3.98;85.05;102227.72;701789;28;1276;-68
2021/11/22 01:04:40;;;;;;;8.85;1.20;;;;;;;3.98;84.83;102226.88;701932;28;911;-68
2021/11/22 01:05:04;;;;;;;5.60;1.00;;;;;;;3.99;85.04;102226.00;701902;28;853;-70
2021/11/22 01:05:44;;;;;;;6.82;1.20;;;;;;;4.02;85.08;102226.88;701467;28;1411;-68
2021/11/22 01:06:05;;;;;;;6.50;1.27;;;;;;;4.00;85.59;102225.16;701425;28;1489;-69
2021/11/22 01:06:26;;;;;;;6.47;1.10;;;;;;;4.01;85.47;102232.09;701994;28;985;-68
2021/11/22 01:06:47;;;;;;;7.05;1.02;;;;;;;4.00;85.44;102232.97;702002;28;872;-68
2021/11/22 01:07:07;;;;;;;6.93;1.10;;;;;;;3.99;85.53;102229.50;701915;28;884;-69
2021/11/22 01:07:31;;;;;;;4.43;1.00;;;;;;;3.99;85.82;102229.50;701422;28;1256;-68
2021/11/22 01:07:51;;;;;;;4.70;1.08;;;;;;;3.99;85.50;102233.81;701466;28;998;-69
2021/11/22 01:08:11;;;;;;;5.77;0.93;;;;;;;4.00;85.60;102235.59;701830;28;1239;-69
2021/11/22 01:08:32;;;;;;;5.73;1.00;;;;;;;3.99;85.11;102231.22;702143;28;800;-69
2021/11/22 01:08:54;;;;;;;7.25;1.10;;;;;;;3.98;85.17;102230.34;701831;28;1297;-68
2021/11/22 01:09:16;;;;;;;6.70;1.10;;;;;;;3.99;85.21;102239.03;702012;28;1004;-68
2021/11/22 01:09:36;;;;;;;6.82;0.93;;;;;;;3.99;85.42;102239.03;701988;28;879;-68
2021/11/22 01:09:57;;;;;;;5.70;1.00;;;;;;;4.00;85.36;102235.59;701856;28;1045;-68
2021/11/22 01:10:18;;;;;;;4.77;1.10;;;;;;;4.01;85.40;102232.09;701802;28;807;-68
2021/11/22 01:10:39;;;;;;;5.70;1.08;;;;;;;4.01;85.54;102232.09;701907;28;820;-68
2021/11/22 01:10:59;;;;;;;5.28;1.15;;;;;;;4.01;85.35;102230.38;702145;28;981;-68
2021/11/22 01:11:19;;;;;;;4.85;1.00;;;;;;;4.03;85.30;102240.84;702170;28;989;-68
2021/11/22 01:11:43;;;;;;;5.70;1.13;;;;;;;4.04;85.28;102242.56;702074;28;784;-68
2021/11/22 01:12:03;;;;;;;5.18;1.30;;;;;;;4.04;85.23;102237.34;702213;28;831;-69
2021/11/22 01:12:28;;;;;;;5.97;1.20;;;;;;;4.04;85.31;102238.22;701981;28;1053;-68
2021/11/22 01:12:49;;;;;;;5.00;1.00;;;;;;;4.03;85.32;102236.50;702192;28;871;-68
2021/11/22 01:13:13;;;;;;;5.63;1.10;;;;;;;4.03;85.42;102235.63;702165;28;943;-68
2021/11/22 01:13:36;;;;;;;5.93;1.10;;;;;;;4.01;85.50;102237.31;702103;28;917;-69
2021/11/22 01:13:59;;;;;;;5.03;1.00;;;;;;;4.03;85.74;102241.69;702150;28;989;-68
2021/11/22 01:14:19;;;;;;;5.60;0.90;;;;;;;4.03;85.56;102238.22;701941;28;1914;-68
2021/11/22 01:14:40;;;;;;;5.53;0.90;;;;;;;4.03;85.39;102243.44;702065;28;938;-69
2021/11/22 01:15:05;;;;;;;4.83;0.87;;;;;;;4.02;85.32;102245.16;702227;28;835;-68
2021/11/22 01:15:25;;;;;;;6.25;1.10;;;;;;;4.00;85.33;102243.41;702038;28;831;-69
2021/11/22 01:15:46;;;;;;;5.55;1.00;;;;;;;4.00;85.30;102240.81;702231;28;914;-69
2021/11/22 01:16:06;;;;;;;4.60;1.00;;;;;;;3.99;85.12;102246.88;702175;28;969;-69
2021/11/22 01:16:29;;;;;;;3.92;0.90;;;;;;;4.02;85.57;102244.28;702020;28;875;-68
2021/11/22 01:16:50;;;;;;;5.70;1.10;;;;;;;4.02;85.35;102244.28;702221;28;943;-69
2021/11/22 01:17:10;;;;;;;7.15;1.13;;;;;;;4.02;85.80;102239.06;702341;28;813;-68
2021/11/22 01:17:30;;;;;;;6.63;1.10;;;;;;;4.03;85.78;102240.84;702078;28;843;-69
2021/11/22 01:17:53;;;;;;;6.57;1.00;;;;;;;4.03;86.13;102246.91;701796;28;939;-68
2021/11/22 01:18:13;;;;;;;5.07;0.90;;;;;;;4.02;86.10;102249.50;702190;28;1322;-69
2021/11/22 01:18:34;;;;;;;5.60;0.90;;;;;;;4.02;86.10;102250.38;702102;28;1041;-68
2021/11/22 01:18:54;;;;;;;6.53;1.10;;;;;;;3.99;86.14;102247.78;702167;28;851;-68
2021/11/22 01:19:18;;;;;;;4.77;1.10;;;;;;;4.03;86.18;102251.28;702195;28;808;-69
2021/11/22 01:19:38;;;;;;;5.32;1.17;;;;;;;4.00;86.04;102251.25;702209;28;926;-69
2021/11/22 01:19:58;;;;;;;6.73;1.03;;;;;;;3.98;86.15;102246.00;702194;28;950;-69
2021/11/22 01:20:27;;;;;;;5.07;0.90;;;;;;;3.96;86.07;102250.34;702212;28;938;-69
2021/11/22 01:20:50;;;;;;;5.55;1.00;;;;;;;3.96;86.17;102252.09;702157;28;895;-69
2021/11/22 01:21:11;;;;;;;5.07;1.00;;;;;;;3.92;85.99;102245.97;702332;28;1034;-69
2021/11/22 01:21:31;;;;;;;6.03;1.07;;;;;;;3.96;86.62;102257.31;702450;28;820;-69
2021/11/22 01:21:52;;;;;;;6.00;1.20;;;;;;;3.93;86.64;102252.94;702383;28;942;-69
2021/11/22 01:22:13;;;;;;;5.68;1.02;;;;;;;3.92;86.41;102263.34;702706;28;973;-68
2021/11/22 01:22:33;;;;;;;5.23;1.00;;;;;;;3.91;86.46;102257.25;702359;28;923;-69
2021/11/22 01:22:59;;;;;;;6.60;1.10;;;;;;;3.91;86.24;102254.63;702309;28;844;-69
2021/11/22 01:23:20;;;;;;;6.82;1.00;;;;;;;3.88;86.05;102248.53;702593;28;895;-69
2021/11/22 01:23:40;;;;;;;5.05;0.80;;;;;;;3.89;86.22;102260.69;702418;28;934;-69
2021/11/22 01:24:01;;;;;;;5.00;0.90;;;;;;;3.89;86.19;102253.78;702386;28;883;-69
2021/11/22 01:24:21;;;;;;;5.95;1.10;;;;;;;3.89;86.69;102260.69;702186;28;866;-68
2021/11/22 01:24:42;;;;;;;7.07;1.20;;;;;;;3.92;86.47;102260.72;702371;28;884;-68
2021/11/22 01:25:02;;;;;;;7.55;1.30;;;;;;;3.89;86.80;102259.00;702172;28;1307;-69
2021/11/22 01:25:26;;;;;;;5.72;1.10;;;;;;;3.90;86.73;102265.06;702140;28;1057;-69
2021/11/22 01:25:46;;;;;;;5.70;1.02;;;;;;;3.90;87.00;102260.72;701946;28;1124;-68
2021/11/22 01:26:06;;;;;;;5.27;1.00;;;;;;;3.89;86.91;102252.88;702238;28;930;-68
2021/11/22 01:26:27;;;;;;;5.80;0.95;;;;;;;3.87;86.83;102254.59;702299;28;906;-68
2021/11/22 01:26:47;;;;;;;5.90;1.00;;;;;;;3.88;87.02;102257.22;701927;28;880;-69
2021/11/22 01:27:07;;;;;;;5.38;1.05;;;;;;;3.89;87.08;102258.09;702672;28;855;-70
2021/11/22 01:27:28;;;;;;;5.27;1.00;;;;;;;3.90;86.86;102257.25;702639;28;970;-69
2021/11/22 01:27:48;;;;;;;6.77;1.03;;;;;;;3.90;86.76;102260.72;702241;28;1041;-70
2021/11/22 01:28:09;;;;;;;5.45;1.02;;;;;;;3.91;87.22;102256.38;702630;28;1307;-70
2021/11/22 01:28:30;;;;;;;7.45;1.20;;;;;;;3.89;86.80;102259.00;702688;28;913;-69
2021/11/22 01:28:51;;;;;;;6.43;1.08;;;;;;;3.90;87.07;102257.25;702587;28;805;-69
2021/11/22 01:29:12;;;;;;;8.18;1.05;;;;;;;3.90;87.11;102260.72;702395;28;927;-69
2021/11/22 01:29:34;;;;;;;6.95;1.10;;;;;;;3.90;87.02;102260.72;702618;28;875;-68
2021/11/22 01:29:55;;;;;;;5.97;0.90;;;;;;;3.89;87.21;102264.19;702773;28;927;-69
2021/11/22 01:30:15;;;;;;;5.87;1.07;;;;;;;3.87;87.46;102259.81;702644;28;859;-70
2021/11/22 01:30:36;;;;;;;4.85;1.00;;;;;;;3.88;87.57;102261.56;702484;28;998;-69
2021/11/22 01:30:57;;;;;;;6.07;0.90;;;;;;;3.90;87.59;102265.06;702199;28;1005;-69
2021/11/22 01:31:23;;;;;;;3.87;0.80;;;;;;;3.89;87.66;102258.09;702079;28;1034;-69
2021/11/22 01:31:44;;;;;;;5.07;1.10;;;;;;;3.89;87.75;102264.19;702185;28;935;-69
2021/11/22 01:32:04;;;;;;;6.23;1.17;;;;;;;3.90;87.83;102259.84;702148;28;850;-69
2021/11/22 01:32:25;;;;;;;6.47;1.20;;;;;;;3.88;87.86;102258.97;701846;28;1320;-69
2021/11/22 01:32:46;;;;;;;6.90;1.20;;;;;;;3.88;87.67;102265.03;702050;28;974;-69
2021/11/22 01:33:06;;;;;;;8.18;1.17;;;;;;;3.88;87.62;102269.41;702009;28;857;-69
2021/11/22 01:33:29;;;;;;;6.87;1.13;;;;;;;3.87;87.75;102260.69;702101;28;815;-69
2021/11/22 01:33:50;;;;;;;7.07;1.10;;;;;;;3.88;87.68;102266.78;702151;28;946;-69
2021/11/22 01:34:22;;;;;;;5.70;0.95;;;;;;;3.88;87.60;102265.03;701915;28;1794;-69
2021/11/22 01:34:43;;;;;;;5.50;1.10;;;;;;;3.89;87.51;102272.03;702041;28;1010;-69
2021/11/22 01:35:03;;;;;;;5.30;1.20;;;;;;;3.90;87.44;102271.16;702013;28;1018;-69
2021/11/22 01:35:24;;;;;;;4.20;0.90;;;;;;;3.92;87.76;102265.94;701978;28;926;-69
2021/11/22 01:35:45;;;;;;;6.45;1.05;;;;;;;3.93;87.90;102271.19;702523;28;843;-69
2021/11/22 01:36:11;;;;;;;6.03;0.95;;;;;;;3.92;87.61;102272.06;702485;28;1333;-71
2021/11/22 01:36:31;;;;;;;6.75;1.17;;;;;;;3.92;87.88;102273.75;702662;28;911;-69
2021/11/22 01:36:52;;;;;;;5.80;1.00;;;;;;;3.92;88.09;102269.44;702666;28;925;-69
2021/11/22 01:37:12;;;;;;;5.87;1.10;;;;;;;3.91;87.88;102269.41;702543;28;1140;-69
2021/11/22 01:37:32;;;;;;;7.77;1.43;;;;;;;3.90;88.11;102270.28;702384;28;855;-69
2021/11/22 01:37:53;;;;;;;8.60;1.40;;;;;;;3.90;87.72;102280.72;702210;28;813;-69
2021/11/22 01:38:15;;;;;;;5.70;0.90;;;;;;;3.88;87.96;102272.00;702490;28;1297;-71
2021/11/22 01:38:35;;;;;;;6.45;0.98;;;;;;;3.89;88.07;102278.97;702525;28;923;-69
2021/11/22 01:38:56;;;;;;;5.28;0.93;;;;;;;3.90;87.85;102280.72;702633;28;955;-70
2021/11/22 01:39:16;;;;;;;4.87;1.00;;;;;;;3.89;87.74;102281.56;702523;28;840;-69
2021/11/22 01:39:36;;;;;;;6.38;0.95;;;;;;;3.89;87.79;102273.75;702306;28;1052;-69
2021/11/22 01:39:56;;;;;;;6.63;1.10;;;;;;;3.89;87.57;102285.06;702278;28;840;-70
2021/11/22 01:40:22;;;;;;;7.33;1.17;;;;;;;3.90;87.59;102272.91;702238;28;939;-70
2021/11/22 01:40:44;;;;;;;5.45;1.02;;;;;;;3.90;87.56;102283.34;702046;28;1812;-69
2021/11/22 01:41:05;;;;;;;6.18;1.13;;;;;;;3.90;87.38;102286.81;702190;28;910;-70
2021/11/22 01:41:26;;;;;;;4.72;1.00;;;;;;;3.91;87.47;102282.47;702014;28;851;-70
2021/11/22 01:41:49;;;;;;;3.60;0.88;;;;;;;3.91;87.65;102290.28;702308;28;864;-69
2021/11/22 01:42:09;;;;;;;6.07;1.13;;;;;;;3.89;87.37;102279.84;702254;28;914;-69
2021/11/22 01:42:30;;;;;;;5.47;0.98;;;;;;;3.89;87.17;102286.78;702633;28;824;-69
2021/11/22 01:42:51;;;;;;;4.73;0.90;;;;;;;3.89;87.45;102285.06;702424;28;905;-70
2021/11/22 01:43:14;;;;;;;5.53;1.10;;;;;;;3.89;87.07;102285.06;702725;28;942;-69
2021/11/22 01:43:34;;;;;;;5.47;1.00;;;;;;;3.89;87.31;102281.56;702421;28;987;-69
2021/11/22 01:43:55;;;;;;;5.13;0.93;;;;;;;3.91;87.14;102282.47;702533;28;816;-69
2021/11/22 01:44:15;;;;;;;5.50;1.02;;;;;;;3.89;87.40;102286.78;702672;28;826;-70
2021/11/22 01:44:36;;;;;;;5.27;1.10;;;;;;;3.90;87.29;102283.34;702609;28;861;-69
2021/11/22 01:44:56;;;;;;;4.10;0.80;;;;;;;3.87;87.15;102284.16;702472;28;912;-70